Time;durP1;ratioP1;P1;durP2;ratioP2;P2;SDS_P1;SDS_P2;PMS_P1;PMS_P2;Temp;Humidity;BMP_temperature;BMP_pressure;BME280_temperature;BME280_humidity;BME280_pressure;Samples;Min_cycle;Max_cycle;Signal;HPM_P1;HPM_P2
2021/05/03 00:00:37;;;;;;;9.50;3.53;;;3.10;91.40;;;;;;4984017;28;20431;-66
2021/05/03 00:03:03;;;;;;;7.68;3.38;;;3.10;91.40;;;;;;4985418;28;20034;-67
2021/05/03 00:05:29;;;;;;;6.88;3.55;;;3.10;91.70;;;;;;4971022;28;20030;-66
2021/05/03 00:07:55;;;;;;;8.80;3.88;;;3.10;91.50;;;;;;4986450;28;20049;-67
2021/05/03 00:10:21;;;;;;;5.80;3.80;;;3.10;91.50;;;;;;4986397;28;20034;-67
2021/05/03 00:12:47;;;;;;;11.48;3.72;;;3.10;91.60;;;;;;4984501;28;20033;-67
2021/05/03 00:15:14;;;;;;;6.93;3.45;;;3.10;91.80;;;;;;4981588;28;20030;-67
2021/05/03 00:17:40;;;;;;;8.52;3.92;;;3.10;91.80;;;;;;4988890;28;20402;-66
2021/05/03 00:20:08;;;;;;;6.45;3.72;;;3.10;91.90;;;;;;4989287;28;20097;-67
2021/05/03 00:22:34;;;;;;;7.43;3.70;;;3.10;91.90;;;;;;4987413;28;20048;-68
2021/05/03 00:25:00;;;;;;;9.40;3.65;;;3.00;91.80;;;;;;4982612;28;20031;-67
2021/05/03 00:27:25;;;;;;;7.93;3.95;;;3.00;92.00;;;;;;4983334;28;20132;-67
2021/05/03 00:29:51;;;;;;;8.60;3.88;;;3.00;92.10;;;;;;4984662;28;20049;-67
2021/05/03 00:32:17;;;;;;;9.02;4.13;;;3.00;92.10;;;;;;4983204;28;20034;-67
2021/05/03 00:34:42;;;;;;;9.23;4.15;;;2.90;92.20;;;;;;4986681;28;20026;-67
2021/05/03 00:37:08;;;;;;;13.52;3.67;;;2.90;92.30;;;;;;4987408;28;20022;-67
2021/05/03 00:39:34;;;;;;;8.63;3.28;;;3.00;92.20;;;;;;4986271;28;20109;-67
2021/05/03 00:42:00;;;;;;;10.35;3.70;;;3.00;92.20;;;;;;4982626;28;20030;-67
2021/05/03 00:44:27;;;;;;;10.32;3.72;;;3.00;92.10;;;;;;4986980;28;20030;-67
2021/05/03 00:46:55;;;;;;;9.85;3.72;;;3.00;92.00;;;;;;4986885;28;20030;-67
2021/05/03 00:49:21;;;;;;;10.10;3.55;;;3.00;92.00;;;;;;4985443;28;20443;-66
2021/05/03 00:51:46;;;;;;;5.97;2.92;;;3.00;92.00;;;;;;4983977;28;20034;-67
2021/05/03 00:54:12;;;;;;;6.75;3.65;;;3.00;91.80;;;;;;4985761;28;20027;-67
2021/05/03 00:56:38;;;;;;;5.78;3.22;;;3.00;91.90;;;;;;4984740;28;20041;-67
2021/05/03 00:59:04;;;;;;;6.40;3.15;;;3.00;92.00;;;;;;4980466;28;20106;-67
2021/05/03 01:01:29;;;;;;;9.15;3.45;;;3.00;91.80;;;;;;4985194;28;20037;-66
2021/05/03 01:03:55;;;;;;;4.93;2.97;;;2.90;92.00;;;;;;4978670;28;20623;-67
2021/05/03 01:06:21;;;;;;;6.90;3.20;;;2.90;91.90;;;;;;4989478;28;20038;-67
2021/05/03 01:08:46;;;;;;;5.35;2.88;;;2.90;92.20;;;;;;4989077;28;20084;-67
2021/05/03 01:11:13;;;;;;;7.53;3.00;;;2.80;92.20;;;;;;4976008;28;20034;-67
2021/05/03 01:13:40;;;;;;;8.70;3.13;;;2.80;92.30;;;;;;4984630;28;20551;-67
2021/05/03 01:16:06;;;;;;;10.60;3.80;;;2.80;92.30;;;;;;4990378;28;20030;-67
2021/05/03 01:18:35;;;;;;;6.75;3.22;;;2.80;92.30;;;;;;4980061;28;20129;-66
2021/05/03 01:21:01;;;;;;;8.70;3.65;;;2.80;92.30;;;;;;4983748;28;20491;-68
2021/05/03 01:23:27;;;;;;;11.68;3.67;;;2.80;92.20;;;;;;4986473;28;20109;-66
2021/05/03 01:25:52;;;;;;;6.95;3.00;;;2.80;92.10;;;;;;4984912;28;20157;-67
2021/05/03 01:28:19;;;;;;;9.70;3.08;;;2.80;92.20;;;;;;4986086;28;20038;-66
2021/05/03 01:30:46;;;;;;;7.38;3.05;;;2.90;92.10;;;;;;4972860;28;20037;-67
2021/05/03 01:33:14;;;;;;;6.35;3.03;;;2.90;92.10;;;;;;4984836;28;20502;-67
2021/05/03 01:35:42;;;;;;;5.85;3.10;;;2.90;92.10;;;;;;4972249;28;20038;-67
2021/05/03 01:38:08;;;;;;;7.20;3.33;;;2.90;92.10;;;;;;4989870;28;20033;-67
2021/05/03 01:40:40;;;;;;;7.50;3.47;;;2.90;92.20;;;;;;4979535;28;20394;-67
2021/05/03 01:43:21;;;;;;;8.20;3.42;;;3.00;92.20;;;;;;4982372;28;20646;-66
2021/05/03 01:45:48;;;;;;;6.10;3.13;;;2.90;92.30;;;;;;4971856;28;20589;-67
2021/05/03 01:48:18;;;;;;;8.95;3.35;;;2.90;92.40;;;;;;4988976;28;20093;-67
2021/05/03 01:50:45;;;;;;;6.72;3.47;;;2.90;92.40;;;;;;4980394;28;20062;-67
2021/05/03 01:53:11;;;;;;;8.63;3.70;;;2.80;92.50;;;;;;4965633;28;20030;-70
2021/05/03 01:55:37;;;;;;;11.68;3.40;;;2.80;92.50;;;;;;4990248;28;20117;-67
2021/05/03 01:58:05;;;;;;;7.63;3.30;;;2.80;92.70;;;;;;4989580;28;20046;-68
2021/05/03 02:00:32;;;;;;;9.60;4.00;;;2.80;92.80;;;;;;4986802;28;20475;-67
2021/05/03 02:02:58;;;;;;;6.75;3.78;;;2.80;92.70;;;;;;4982238;28;20113;-67
2021/05/03 02:05:25;;;;;;;7.00;4.20;;;2.70;92.90;;;;;;4984251;28;20039;-67
2021/05/03 02:07:59;;;;;;;5.72;3.47;;;2.70;93.00;;;;;;4978950;28;20073;-67
2021/05/03 02:10:25;;;;;;;8.23;4.28;;;2.80;93.00;;;;;;4982480;28;20110;-67
2021/05/03 02:12:51;;;;;;;7.78;3.97;;;2.80;93.00;;;;;;4988206;28;20314;-67
2021/05/03 02:15:17;;;;;;;8.25;3.97;;;2.80;93.00;;;;;;4982431;28;20046;-67
2021/05/03 02:17:42;;;;;;;6.97;3.80;;;2.80;92.90;;;;;;4977273;28;20030;-66
2021/05/03 02:20:08;;;;;;;7.43;4.18;;;2.80;92.90;;;;;;4962207;28;20074;-68
2021/05/03 02:22:34;;;;;;;7.85;4.20;;;2.80;92.90;;;;;;4981239;28;20461;-67
2021/05/03 02:25:00;;;;;;;10.98;3.83;;;2.80;92.90;;;;;;4992804;28;20045;-67
2021/05/03 02:27:25;;;;;;;10.50;4.03;;;2.80;93.00;;;;;;4988971;28;20023;-67
2021/05/03 02:29:51;;;;;;;14.32;3.97;;;2.80;93.00;;;;;;4977460;28;20026;-68
2021/05/03 02:32:17;;;;;;;9.55;4.85;;;2.70;93.10;;;;;;4989359;28;20042;-68
2021/05/03 02:34:42;;;;;;;9.40;4.28;;;2.60;93.20;;;;;;4992328;28;20033;-68
2021/05/03 02:37:08;;;;;;;7.20;3.95;;;2.60;93.30;;;;;;4991948;28;20034;-68
2021/05/03 02:39:34;;;;;;;8.32;4.07;;;2.60;93.30;;;;;;4991626;28;20037;-67
2021/05/03 02:42:00;;;;;;;6.63;3.95;;;2.50;93.40;;;;;;4985887;28;20109;-68
2021/05/03 02:44:26;;;;;;;8.30;4.55;;;2.40;93.50;;;;;;4988711;28;20081;-67
2021/05/03 02:46:51;;;;;;;6.97;4.20;;;2.40;93.60;;;;;;4980854;28;20459;-67
2021/05/03 02:49:17;;;;;;;7.05;4.68;;;2.40;93.70;;;;;;4988005;28;20137;-68
2021/05/03 02:51:43;;;;;;;12.40;4.82;;;2.40;93.70;;;;;;4985936;28;20077;-67
2021/05/03 02:54:08;;;;;;;8.70;4.85;;;2.30;93.80;;;;;;4989789;28;20037;-67
2021/05/03 02:56:34;;;;;;;7.93;4.22;;;2.40;93.90;;;;;;4992228;28;20102;-67
2021/05/03 02:59:00;;;;;;;13.95;4.53;;;2.30;93.80;;;;;;4989760;28;20038;-67
2021/05/03 03:01:25;;;;;;;7.93;4.60;;;2.20;93.90;;;;;;4991556;28;20037;-67
2021/05/03 03:03:51;;;;;;;8.20;4.60;;;2.20;94.00;;;;;;4989949;28;20019;-67
2021/05/03 03:06:16;;;;;;;8.27;4.40;;;2.20;94.00;;;;;;4991981;28;20026;-67
2021/05/03 03:08:42;;;;;;;8.40;4.38;;;2.20;94.00;;;;;;4990291;28;20256;-67
2021/05/03 03:11:08;;;;;;;7.30;4.63;;;2.20;94.10;;;;;;4989271;28;20066;-67
2021/05/03 03:13:33;;;;;;;9.38;5.28;;;2.20;94.20;;;;;;4987124;28;20105;-68
2021/05/03 03:15:59;;;;;;;11.52;4.85;;;2.20;94.10;;;;;;4980013;28;20035;-67
2021/05/03 03:18:26;;;;;;;13.18;4.57;;;2.10;94.10;;;;;;4985116;28;20027;-67
2021/05/03 03:20:51;;;;;;;11.98;4.45;;;2.10;94.20;;;;;;4991037;28;20171;-67
2021/05/03 03:23:17;;;;;;;8.98;4.60;;;2.10;94.30;;;;;;4991495;28;20034;-67
2021/05/03 03:25:43;;;;;;;8.50;5.03;;;2.10;94.20;;;;;;4986622;28;20517;-68
2021/05/03 03:28:08;;;;;;;9.02;4.80;;;2.10;94.10;;;;;;4983011;28;20065;-67
2021/05/03 03:30:34;;;;;;;8.48;4.55;;;2.10;94.20;;;;;;4984983;28;20031;-67
2021/05/03 03:33:00;;;;;;;7.50;4.60;;;2.10;94.10;;;;;;4987543;28;20129;-68
2021/05/03 03:35:28;;;;;;;6.78;4.03;;;2.00;94.10;;;;;;4983427;28;20039;-67
2021/05/03 03:37:53;;;;;;;11.35;5.13;;;2.00;94.20;;;;;;4972965;28;20034;-68
2021/05/03 03:40:19;;;;;;;9.48;4.38;;;1.90;94.30;;;;;;4985469;28;20564;-67
2021/05/03 03:42:46;;;;;;;9.10;4.90;;;2.00;94.60;;;;;;4992107;28;20037;-67
2021/05/03 03:45:13;;;;;;;8.73;5.07;;;2.00;94.50;;;;;;4977026;28;20049;-67
2021/05/03 03:47:40;;;;;;;10.30;5.00;;;1.90;94.40;;;;;;4977809;28;20417;-67
2021/05/03 03:50:06;;;;;;;7.43;4.85;;;1.90;94.50;;;;;;4981902;28;20123;-67
2021/05/03 03:52:33;;;;;;;12.68;5.30;;;1.90;94.50;;;;;;4986883;28;20445;-67
2021/05/03 03:54:58;;;;;;;9.82;5.43;;;2.00;94.70;;;;;;4986022;28;20031;-67
2021/05/03 03:57:24;;;;;;;10.27;4.97;;;2.00;94.70;;;;;;4990602;28;20081;-67
2021/05/03 03:59:54;;;;;;;10.93;5.28;;;2.00;94.50;;;;;;4989624;28;20033;-68
2021/05/03 04:02:20;;;;;;;9.25;5.05;;;1.90;94.50;;;;;;4989062;28;20439;-67
2021/05/03 04:04:56;;;;;;;8.60;4.65;;;2.00;94.60;;;;;;4987060;28;20088;-68
2021/05/03 04:08:13;;;;;;;9.10;5.28;;;1.90;94.50;;;;;;4990827;28;20102;-67
2021/05/03 04:10:22;;;;;;;10.15;5.53;;;1.90;94.60;;;;;;4976367;28;20569;-67
2021/05/03 04:21:06;;;;;;;8.77;4.72;;;2.00;94.60;;;;;;4977626;28;20129;-68
2021/05/03 04:26:10;;;;;;;9.25;5.40;;;2.00;94.70;;;;;;4984487;28;20496;-67
2021/05/03 04:28:36;;;;;;;10.40;5.60;;;2.00;94.80;;;;;;4977167;28;20073;-67
2021/05/03 04:31:01;;;;;;;9.75;5.38;;;2.10;94.70;;;;;;4990058;28;20050;-67
2021/05/03 04:33:27;;;;;;;9.80;6.07;;;2.10;94.70;;;;;;4989018;28;20042;-67
2021/05/03 04:35:52;;;;;;;11.70;6.30;;;2.10;94.60;;;;;;4979532;28;20165;-68
2021/05/03 04:38:18;;;;;;;11.93;6.32;;;2.10;94.70;;;;;;4976168;28;20030;-67
2021/05/03 04:40:46;;;;;;;9.65;5.82;;;2.10;94.60;;;;;;4986501;28;20061;-67
2021/05/03 04:43:14;;;;;;;11.40;6.53;;;2.20;94.70;;;;;;4983696;28;20368;-68
2021/05/03 04:45:40;;;;;;;13.40;5.97;;;2.20;94.60;;;;;;4985231;28;20034;-67
2021/05/03 04:48:06;;;;;;;9.93;6.28;;;2.30;94.60;;;;;;4989047;28;20057;-67
2021/05/03 04:50:32;;;;;;;11.32;6.18;;;2.30;94.60;;;;;;4985381;28;20026;-66
2021/05/03 04:52:57;;;;;;;11.88;6.00;;;2.40;94.50;;;;;;4987782;28;20031;-67
2021/05/03 04:55:23;;;;;;;11.57;6.28;;;2.50;94.40;;;;;;4963292;28;20019;-66
2021/05/03 04:57:48;;;;;;;10.27;5.50;;;2.60;94.30;;;;;;4987033;28;20031;-66
2021/05/03 05:00:15;;;;;;;8.77;5.22;;;2.60;94.20;;;;;;4969133;28;20026;-66
2021/05/03 05:02:41;;;;;;;9.55;5.95;;;2.60;94.10;;;;;;4987055;28;20038;-67
2021/05/03 05:05:10;;;;;;;11.80;5.72;;;2.70;94.00;;;;;;4988143;28;20061;-66
2021/05/03 05:07:36;;;;;;;7.60;5.10;;;2.80;93.80;;;;;;4990634;28;20022;-67
2021/05/03 05:10:02;;;;;;;10.63;6.00;;;2.80;93.70;;;;;;4989315;28;20081;-67
2021/05/03 05:12:28;;;;;;;14.50;6.13;;;2.90;93.50;;;;;;4984950;28;20121;-66
2021/05/03 05:14:53;;;;;;;10.60;5.50;;;2.90;93.50;;;;;;4982950;28;20026;-67
2021/05/03 05:17:19;;;;;;;11.98;6.03;;;3.00;93.40;;;;;;4987548;28;20081;-67
2021/05/03 05:19:46;;;;;;;12.40;6.30;;;3.10;93.20;;;;;;4981734;28;20491;-67
2021/05/03 05:22:12;;;;;;;10.50;6.43;;;3.10;93.10;;;;;;4983214;28;20112;-67
2021/05/03 05:24:38;;;;;;;10.10;5.47;;;3.20;93.10;;;;;;4984820;28;20106;-67
2021/05/03 05:27:03;;;;;;;9.82;6.78;;;3.30;92.90;;;;;;4981841;28;20038;-66
2021/05/03 05:29:29;;;;;;;10.18;6.93;;;3.40;92.70;;;;;;4982023;28;20407;-67
2021/05/03 05:31:55;;;;;;;10.27;6.10;;;3.50;92.50;;;;;;4987071;28;20117;-68
2021/05/03 05:34:21;;;;;;;14.18;6.80;;;3.60;92.30;;;;;;4985458;28;20118;-67
2021/05/03 05:36:46;;;;;;;13.10;6.70;;;3.70;92.40;;;;;;4983229;28;20026;-67
2021/05/03 05:39:13;;;;;;;13.63;6.25;;;3.80;92.00;;;;;;4988310;28;20027;-66
2021/05/03 05:41:39;;;;;;;11.07;5.97;;;3.80;91.60;;;;;;4988192;28;20022;-67
2021/05/03 05:44:06;;;;;;;11.15;6.75;;;3.90;91.60;;;;;;4986747;28;20439;-67
2021/05/03 05:46:36;;;;;;;13.50;6.40;;;4.10;91.30;;;;;;4988839;28;20022;-67
2021/05/03 05:49:02;;;;;;;9.55;6.20;;;4.10;90.80;;;;;;4987859;28;20050;-68
2021/05/03 05:51:27;;;;;;;10.88;6.15;;;4.30;90.90;;;;;;4986918;28;20042;-68
2021/05/03 05:53:53;;;;;;;12.82;5.70;;;4.30;90.90;;;;;;4985178;28;20030;-67
2021/05/03 05:56:19;;;;;;;14.35;6.28;;;4.30;90.60;;;;;;4986393;28;20031;-68
2021/05/03 05:58:45;;;;;;;10.02;5.75;;;4.40;90.40;;;;;;4983901;28;20112;-68
2021/05/03 06:01:10;;;;;;;11.18;6.25;;;4.50;90.00;;;;;;4985355;28;20498;-66
2021/05/03 06:03:36;;;;;;;8.23;5.70;;;4.60;89.70;;;;;;4987407;28;20045;-67
2021/05/03 06:06:02;;;;;;;14.43;5.35;;;4.70;89.70;;;;;;4980690;28;20034;-67
2021/05/03 06:08:27;;;;;;;10.25;5.25;;;4.80;89.20;;;;;;4986483;28;20057;-68
2021/05/03 06:10:53;;;;;;;9.30;5.85;;;4.90;88.90;;;;;;4988776;28;20109;-68
2021/05/03 06:13:19;;;;;;;8.38;5.20;;;5.10;88.80;;;;;;4992506;28;20026;-67
2021/05/03 06:15:45;;;;;;;10.20;4.53;;;5.10;87.70;;;;;;4991763;28;20046;-67
2021/05/03 06:18:11;;;;;;;11.27;4.95;;;5.10;87.10;;;;;;4990593;28;20534;-69
2021/05/03 06:20:36;;;;;;;6.57;4.05;;;5.30;87.50;;;;;;4987074;28;20057;-66
2021/05/03 06:23:03;;;;;;;9.10;4.18;;;5.30;86.90;;;;;;4966226;28;20057;-68
2021/05/03 06:25:29;;;;;;;8.07;4.57;;;5.30;86.20;;;;;;4993504;28;20078;-68
2021/05/03 06:27:55;;;;;;;7.25;4.60;;;5.50;87.20;;;;;;4981605;28;20129;-68
2021/05/03 06:30:22;;;;;;;9.32;4.47;;;5.70;87.10;;;;;;4972673;28;20109;-68
2021/05/03 06:32:48;;;;;;;8.27;4.28;;;5.80;85.50;;;;;;4990178;28;20073;-68
2021/05/03 06:35:14;;;;;;;6.97;4.00;;;6.00;85.50;;;;;;4989969;28;20038;-68
2021/05/03 06:37:40;;;;;;;8.75;4.10;;;5.90;84.50;;;;;;4982827;28;20207;-68
2021/05/03 06:40:06;;;;;;;6.35;3.95;;;6.10;84.40;;;;;;4985032;28;20030;-67
2021/05/03 06:42:31;;;;;;;6.70;3.83;;;6.20;84.90;;;;;;4986022;28;20034;-68
2021/05/03 06:44:57;;;;;;;9.73;3.72;;;6.30;84.00;;;;;;4977483;28;20536;-68
2021/05/03 06:47:25;;;;;;;6.20;3.53;;;6.40;84.20;;;;;;4982315;28;20158;-68
2021/05/03 06:49:50;;;;;;;6.18;3.85;;;6.70;84.00;;;;;;4986887;28;20029;-68
2021/05/03 06:52:16;;;;;;;5.47;3.45;;;6.40;82.90;;;;;;4976733;28;20030;-68
2021/05/03 06:54:42;;;;;;;5.53;3.50;;;6.50;83.60;;;;;;4985863;28;20475;-68
2021/05/03 06:57:07;;;;;;;6.05;3.75;;;7.10;82.30;;;;;;4990577;28;20033;-67
2021/05/03 06:59:33;;;;;;;5.53;2.95;;;7.20;81.50;;;;;;4981073;28;20080;-68
2021/05/03 07:01:58;;;;;;;6.72;3.42;;;7.10;80.90;;;;;;4984179;28;20038;-67
2021/05/03 07:04:24;;;;;;;5.13;2.85;;;7.20;81.40;;;;;;4982712;28;20042;-68
2021/05/03 07:06:49;;;;;;;8.27;3.42;;;7.10;81.20;;;;;;4982589;28;20494;-69
2021/05/03 07:09:15;;;;;;;5.63;2.88;;;7.00;81.70;;;;;;4979450;28;20062;-68
2021/05/03 07:11:42;;;;;;;6.20;3.47;;;7.20;82.30;;;;;;4988172;28;20077;-68
2021/05/03 07:14:07;;;;;;;5.35;3.08;;;7.10;82.40;;;;;;4968254;28;20398;-68
2021/05/03 07:16:34;;;;;;;5.20;3.13;;;7.30;82.80;;;;;;4989329;28;20019;-68
2021/05/03 07:19:00;;;;;;;6.50;3.40;;;7.30;81.80;;;;;;4985607;28;20506;-68
2021/05/03 07:21:26;;;;;;;4.90;3.13;;;7.30;81.60;;;;;;4981070;28;20027;-68
2021/05/03 07:23:52;;;;;;;5.70;2.85;;;7.30;81.40;;;;;;4986684;28;20026;-68
2021/05/03 07:26:18;;;;;;;6.47;3.17;;;7.40;81.80;;;;;;4984018;28;20121;-68
2021/05/03 07:28:43;;;;;;;5.35;2.70;;;7.50;81.70;;;;;;4985118;28;20068;-68
2021/05/03 07:31:09;;;;;;;5.78;2.60;;;7.40;80.10;;;;;;4983524;28;20033;-68
2021/05/03 07:33:34;;;;;;;5.57;2.47;;;7.30;80.80;;;;;;4981245;28;20511;-69
2021/05/03 07:36:00;;;;;;;6.47;2.33;;;7.60;79.60;;;;;;4987986;28;20041;-69
2021/05/03 07:38:26;;;;;;;4.30;2.63;;;7.60;80.00;;;;;;4986767;28;20015;-67
2021/05/03 07:40:52;;;;;;;8.77;2.63;;;8.00;79.90;;;;;;4967360;28;20120;-67
2021/05/03 07:43:19;;;;;;;5.63;2.80;;;7.80;79.30;;;;;;4982647;28;20026;-68
2021/05/03 07:45:45;;;;;;;6.43;2.88;;;8.00;78.00;;;;;;4988336;28;20034;-69
2021/05/03 07:48:11;;;;;;;4.30;2.83;;;8.30;79.80;;;;;;4985774;28;20030;-68
2021/05/03 07:50:37;;;;;;;5.07;2.60;;;8.20;78.30;;;;;;4970907;28;20030;-68
2021/05/03 07:53:03;;;;;;;9.55;2.97;;;8.10;78.40;;;;;;4970615;28;20066;-67
2021/05/03 07:55:29;;;;;;;5.70;2.70;;;7.90;79.70;;;;;;4986671;28;20401;-68
2021/05/03 07:57:57;;;;;;;5.63;2.95;;;7.50;79.10;;;;;;4985422;28;20048;-68
2021/05/03 08:00:23;;;;;;;5.70;3.08;;;7.60;80.00;;;;;;4984107;28;20029;-68
2021/05/03 08:02:48;;;;;;;5.57;2.97;;;7.40;80.00;;;;;;4984771;28;20084;-68
2021/05/03 08:05:14;;;;;;;5.80;2.90;;;7.50;81.40;;;;;;4984287;28;20553;-68
2021/05/03 08:07:40;;;;;;;8.40;3.40;;;7.30;81.30;;;;;;4986731;28;20043;-68
2021/05/03 08:10:07;;;;;;;4.70;2.88;;;7.30;82.30;;;;;;4984880;28;20511;-69
2021/05/03 08:12:33;;;;;;;3.55;2.72;;;7.30;81.40;;;;;;4985445;28;20026;-68
2021/05/03 08:15:04;;;;;;;5.68;3.33;;;7.10;81.40;;;;;;4981497;28;20506;-68
2021/05/03 08:17:30;;;;;;;4.10;2.67;;;7.30;81.90;;;;;;4988474;28;20022;-68
2021/05/03 08:19:55;;;;;;;4.50;3.00;;;7.20;81.80;;;;;;4968772;28;20021;-68
2021/05/03 08:22:21;;;;;;;5.60;3.15;;;7.10;82.30;;;;;;4980103;28;20549;-68
2021/05/03 08:24:47;;;;;;;5.65;2.92;;;7.00;82.70;;;;;;4981491;28;20037;-68
2021/05/03 08:27:12;;;;;;;8.68;3.58;;;7.00;84.00;;;;;;4989597;28;20431;-68
2021/05/03 08:29:38;;;;;;;5.18;2.97;;;6.90;85.40;;;;;;4968238;28;20113;-68
2021/05/03 08:32:04;;;;;;;4.88;3.00;;;6.60;85.70;;;;;;4976811;28;20541;-67
2021/05/03 08:34:30;;;;;;;6.47;3.10;;;6.10;86.20;;;;;;4986115;28;20515;-67
2021/05/03 08:36:57;;;;;;;4.35;3.08;;;6.10;87.40;;;;;;4988662;28;20065;-68
2021/05/03 08:39:25;;;;;;;6.00;3.38;;;6.00;87.20;;;;;;4986097;28;20026;-67
2021/05/03 08:41:59;;;;;;;7.07;3.50;;;6.00;88.50;;;;;;4960705;28;20128;-67
2021/05/03 08:44:26;;;;;;;5.53;3.17;;;5.80;89.00;;;;;;4985759;28;20030;-66
2021/05/03 08:46:52;;;;;;;4.68;3.33;;;5.80;89.30;;;;;;4982931;28;20034;-67
2021/05/03 08:49:29;;;;;;;6.78;3.50;;;6.00;89.50;;;;;;4987319;28;20042;-67
2021/05/03 08:57:03;;;;;;;3.92;2.80;;;6.00;88.70;;;;;;4983117;28;20034;-67
2021/05/03 08:59:29;;;;;;;4.72;2.90;;;6.10;89.30;;;;;;4982283;28;20092;-66
2021/05/03 09:01:54;;;;;;;5.10;2.97;;;6.00;88.00;;;;;;4987405;28;20608;-67
2021/05/03 09:04:20;;;;;;;4.85;2.50;;;6.40;88.90;;;;;;4981755;28;20447;-66
2021/05/03 09:06:59;;;;;;;3.53;2.58;;;6.00;87.30;;;;;;4984998;28;20274;-67
2021/05/03 09:09:33;;;;;;;5.97;3.03;;;6.20;88.10;;;;;;4985393;28;20118;-66
2021/05/03 09:12:05;;;;;;;5.45;2.92;;;6.10;88.30;;;;;;4980796;28;20045;-66
2021/05/03 09:14:31;;;;;;;3.55;2.55;;;6.00;87.80;;;;;;4988110;28;20030;-66
2021/05/03 09:16:58;;;;;;;5.22;3.50;;;5.90;88.00;;;;;;4975381;28;20042;-68
2021/05/03 09:19:24;;;;;;;6.43;4.15;;;5.80;88.60;;;;;;4978767;28;20050;-66
2021/05/03 09:21:50;;;;;;;6.55;4.47;;;5.90;88.60;;;;;;4983116;28;21261;-68
2021/05/03 09:24:22;;;;;;;8.20;5.13;;;6.00;88.60;;;;;;4979354;28;20018;-67
2021/05/03 09:27:02;;;;;;;7.50;5.45;;;6.00;87.80;;;;;;4980814;28;20434;-67
2021/05/03 09:29:32;;;;;;;7.65;5.53;;;6.00;88.90;;;;;;4975009;28;20030;-67
2021/05/03 09:32:00;;;;;;;7.88;5.70;;;5.80;88.10;;;;;;4989290;28;20065;-67
2021/05/03 09:34:28;;;;;;;8.55;6.05;;;5.90;88.90;;;;;;4991300;28;20038;-68
2021/05/03 09:37:15;;;;;;;10.15;6.90;;;6.00;88.90;;;;;;4991941;28;20113;-68
2021/05/03 09:39:58;;;;;;;9.25;6.80;;;5.80;88.40;;;;;;4987692;28;20065;-66
2021/05/03 09:42:41;;;;;;;9.15;7.13;;;5.90;88.40;;;;;;4988677;28;20069;-68
2021/05/03 09:45:12;;;;;;;10.13;7.18;;;6.00;88.40;;;;;;4988810;28;20215;-67
2021/05/03 09:47:40;;;;;;;9.77;6.95;;;6.10;87.60;;;;;;4981405;28;20050;-67
2021/05/03 09:50:15;;;;;;;10.05;6.72;;;6.60;87.80;;;;;;4978908;28;20465;-68
2021/05/03 09:53:00;;;;;;;8.10;5.63;;;6.40;86.00;;;;;;4986266;28;20606;-66
2021/05/03 09:55:37;;;;;;;8.15;6.30;;;6.50;86.20;;;;;;4981593;28;20045;-68
2021/05/03 09:58:23;;;;;;;7.22;5.18;;;6.80;86.50;;;;;;4990096;28;20030;-67
2021/05/03 10:00:54;;;;;;;7.80;5.38;;;6.90;84.80;;;;;;4973643;28;20034;-66
2021/05/03 10:03:34;;;;;;;7.70;4.70;;;7.30;84.00;;;;;;4985329;28;20486;-67
2021/05/03 10:06:02;;;;;;;6.15;4.45;;;7.50;82.90;;;;;;4981154;28;20103;-67
2021/05/03 10:08:27;;;;;;;7.20;4.50;;;7.40;84.10;;;;;;4983030;28;20041;-68
2021/05/03 10:10:57;;;;;;;7.30;4.63;;;7.50;82.60;;;;;;4986952;28;20038;-68
2021/05/03 10:13:23;;;;;;;6.40;4.45;;;7.40;82.30;;;;;;4991523;28;20200;-67
2021/05/03 10:15:54;;;;;;;6.60;4.40;;;7.30;82.80;;;;;;4992373;28;20026;-67
2021/05/03 10:18:20;;;;;;;8.82;4.90;;;7.20;82.90;;;;;;4976350;28;20054;-67
2021/05/03 10:20:46;;;;;;;7.95;4.40;;;7.20;83.10;;;;;;4983995;28;20101;-67
2021/05/03 10:23:13;;;;;;;8.18;4.90;;;7.60;84.40;;;;;;4984151;28;20558;-67
2021/05/03 10:25:42;;;;;;;6.45;4.55;;;7.70;82.30;;;;;;4985616;28;20064;-68
2021/05/03 10:28:09;;;;;;;8.13;5.32;;;7.40;82.20;;;;;;4988862;28;20030;-68
2021/05/03 10:30:44;;;;;;;6.75;4.68;;;7.20;83.30;;;;;;4984049;28;20038;-67
2021/05/03 10:33:13;;;;;;;7.70;4.75;;;7.20;83.30;;;;;;4979316;28;20042;-68
2021/05/03 10:35:44;;;;;;;9.50;5.72;;;7.10;83.90;;;;;;4974580;28;20030;-68
2021/05/03 11:04:04;;;;;;;8.95;6.40;;;7.20;84.70;;;;;;6006431;23;20020;-71
2021/05/03 11:06:52;;;;;;;9.63;6.43;;;7.10;84.60;;;;;;4916648;28;676522;-73
2021/05/03 11:09:30;;;;;;;8.95;6.85;;;7.20;84.60;;;;;;4925113;29;20535;-71
2021/05/03 11:12:22;;;;;;;9.00;6.90;;;7.20;84.20;;;;;;4951063;29;20027;-70
2021/05/03 11:15:09;;;;;;;11.68;7.43;;;7.10;84.60;;;;;;4939136;29;20027;-70
2021/05/03 11:17:35;;;;;;;8.63;6.57;;;7.40;84.70;;;;;;4929606;29;20042;-73
2021/05/03 11:20:06;;;;;;;12.18;6.93;;;7.50;84.20;;;;;;4929555;29;20032;-70
2021/05/03 11:23:02;;;;;;;9.50;6.82;;;7.30;84.30;;;;;;4928637;29;20435;-70
2021/05/03 11:25:32;;;;;;;10.65;7.53;;;7.30;85.00;;;;;;4928112;29;20463;-71
2021/05/03 11:28:08;;;;;;;9.63;7.03;;;7.40;84.50;;;;;;4925654;29;20635;-70
2021/05/03 11:30:45;;;;;;;10.85;8.05;;;7.50;84.10;;;;;;4931103;29;20068;-70
2021/05/03 11:33:14;;;;;;;10.50;7.28;;;7.70;83.90;;;;;;4930079;29;20034;-69
2021/05/03 11:38:37;;;;;;;9.80;7.22;;;8.60;82.40;;;;;;4932138;29;20027;-71
2021/05/03 11:46:24;;;;;;;10.90;8.63;;;8.30;81.90;;;;;;4931202;29;20043;-72
2021/05/03 11:48:51;;;;;;;12.95;9.48;;;8.40;82.50;;;;;;4928819;29;20035;-72
2021/05/03 11:51:17;;;;;;;13.07;9.23;;;8.60;82.10;;;;;;4930181;29;20054;-72
2021/05/03 11:53:44;;;;;;;12.82;9.27;;;8.40;81.70;;;;;;4930040;29;20043;-71
2021/05/03 11:56:27;;;;;;;15.25;10.38;;;8.40;82.30;;;;;;4927919;29;20138;-70
2021/05/03 11:58:57;;;;;;;14.10;11.18;;;8.30;82.00;;;;;;4930887;29;20023;-70
2021/05/03 12:01:25;;;;;;;16.70;11.95;;;8.10;82.30;;;;;;4923747;29;20019;-72
2021/05/03 12:03:59;;;;;;;14.98;11.45;;;8.00;83.20;;;;;;4915184;29;20024;-70
2021/05/03 12:06:41;;;;;;;17.27;12.48;;;8.10;83.80;;;;;;4928112;29;20047;-70
2021/05/03 12:09:13;;;;;;;18.67;13.52;;;8.20;83.10;;;;;;4928142;29;20035;-71
2021/05/03 12:11:53;;;;;;;17.30;13.52;;;8.30;83.70;;;;;;4928327;29;20035;-70
2021/05/03 12:14:19;;;;;;;15.68;13.13;;;8.60;83.80;;;;;;4927870;29;20071;-72
2021/05/03 12:16:44;;;;;;;19.02;13.23;;;8.90;83.20;;;;;;4928085;29;20039;-70
2021/05/03 12:19:20;;;;;;;17.42;12.82;;;9.20;83.10;;;;;;4926930;29;20032;-71
2021/05/03 12:21:59;;;;;;;17.58;11.50;;;9.10;81.30;;;;;;4928112;29;20079;-71
2021/05/03 12:24:26;;;;;;;14.55;11.85;;;9.00;81.20;;;;;;4928082;29;20035;-73
2021/05/03 12:27:00;;;;;;;18.05;12.15;;;8.90;80.90;;;;;;4928511;29;20019;-73
2021/05/03 12:29:28;;;;;;;15.10;10.85;;;8.80;81.30;;;;;;4927176;29;20086;-72
2021/05/03 12:31:54;;;;;;;17.92;10.57;;;8.70;82.10;;;;;;4925014;29;20137;-71
2021/05/03 12:34:22;;;;;;;13.18;10.05;;;8.80;81.40;;;;;;4923921;29;20070;-71
2021/05/03 12:37:23;;;;;;;13.85;9.88;;;9.00;80.70;;;;;;4927844;29;20055;-71
2021/05/03 12:39:57;;;;;;;12.95;9.40;;;9.10;79.50;;;;;;4926529;29;20030;-71
2021/05/03 12:42:29;;;;;;;12.07;8.90;;;9.40;79.50;;;;;;4933137;29;20515;-70
2021/05/03 12:44:57;;;;;;;12.60;9.32;;;9.30;78.50;;;;;;4928113;29;20111;-72
2021/05/03 12:50:19;;;;;;;12.32;8.38;;;9.80;77.60;;;;;;4928289;29;20044;-70
2021/05/03 12:53:18;;;;;;;10.45;7.72;;;9.80;77.80;;;;;;4928050;29;20035;-70
2021/05/03 12:58:43;;;;;;;9.80;6.95;;;9.90;77.40;;;;;;4927693;29;20047;-70
2021/05/03 13:07:15;;;;;;;9.88;6.97;;;10.20;73.80;;;;;;4927127;29;20511;-71
2021/05/03 13:29:23;;;;;;;15.63;11.98;;;8.70;83.50;;;;;;4926979;29;20082;-70
2021/05/03 13:31:49;;;;;;;16.77;13.63;;;8.50;83.70;;;;;;4924616;29;20042;-69
2021/05/03 13:34:17;;;;;;;17.92;13.57;;;8.60;85.60;;;;;;4906858;28;20035;-69
2021/05/03 13:36:47;;;;;;;16.90;13.10;;;8.50;86.00;;;;;;4928811;29;20031;-70
2021/05/03 13:39:16;;;;;;;20.13;14.75;;;8.40;84.20;;;;;;4926466;29;20071;-70
2021/05/03 13:41:45;;;;;;;15.23;12.13;;;8.70;83.90;;;;;;4929407;29;20396;-72
2021/05/03 13:44:13;;;;;;;15.30;11.73;;;9.10;80.90;;;;;;4927184;29;20031;-71
2021/05/03 13:46:40;;;;;;;14.57;10.73;;;9.80;79.90;;;;;;4928607;29;20036;-71
2021/05/03 13:49:06;;;;;;;14.15;10.35;;;10.00;77.30;;;;;;4927992;29;20036;-70
2021/05/03 13:51:32;;;;;;;12.60;9.35;;;9.90;77.50;;;;;;4926825;29;20046;-71
2021/05/03 13:53:59;;;;;;;9.25;7.72;;;9.90;77.90;;;;;;4924935;29;20099;-70
2021/05/03 13:56:25;;;;;;;10.93;8.20;;;9.80;76.10;;;;;;4925162;29;20036;-70
2021/05/03 13:58:51;;;;;;;9.35;6.78;;;9.90;77.40;;;;;;4923497;29;20036;-70
2021/05/03 14:01:17;;;;;;;8.02;5.70;;;9.80;75.60;;;;;;4920389;29;20090;-72
2021/05/03 14:03:43;;;;;;;8.07;5.75;;;10.10;74.90;;;;;;4926793;29;20047;-70
2021/05/03 14:06:10;;;;;;;7.85;6.03;;;10.10;75.00;;;;;;4923186;29;20066;-71
2021/05/03 14:08:36;;;;;;;7.80;5.68;;;9.80;75.80;;;;;;4926133;29;20036;-70
2021/05/03 14:11:05;;;;;;;7.57;5.55;;;9.80;75.20;;;;;;4923652;29;20058;-73
2021/05/03 14:13:31;;;;;;;8.02;6.10;;;10.20;76.40;;;;;;4919842;29;20566;-70
2021/05/03 14:15:56;;;;;;;8.15;5.05;;;10.30;76.20;;;;;;4925145;29;20427;-71
2021/05/03 14:18:22;;;;;;;6.45;4.78;;;10.00;73.10;;;;;;4917433;29;20024;-70